M.v.golden Bull — VRKC7 — position and weather

sailwx.info

Track history (hours):
 
Tides and Currents Weather Stations Pressure Air Temp Water Temp Dewpoint Dewpoint Depression Visibility Wind Speed Wind Dir Waves Ship Positions

M.v.golden Bull

Last reported at 2018-Aug-21 04:03 UTC. Time now 2018-Aug-21 04:20 UTC.
Position N 50°44' E 001°24'.

Length 224 m; draft 14.1 m.

Type: Ship. MMSI: 477700600.

Date/timePositionNaut miles runAvg speedWind from/ knotsBaromVisibWave heightAir tempDewpointWater temp
2018-Aug-21 04:03N 50°44' E 001°24'113.1
2018-Aug-21 04:00N 50°43' E 001°23'612.6
2018-Aug-21 03:30N 50°38' E 001°17'612.7
2018-Aug-21 03:03N 50°35' E 001°10'112.8
2018-Aug-21 02:59N 50°34' E 001°09'612.6
2018-Aug-21 02:30N 50°30' E 001°01'512.3
2018-Aug-21 02:03N 50°28' E 000°53'112.1
2018-Aug-21 02:00N 50°28' E 000°52'612.2
2018-Aug-21 01:30N 50°27' E 000°43'2212.2
2018-Aug-20 23:40N 50°21' E 000°09'312.1
2018-Aug-20 23:27N 50°20' E 000°05'512.1
2018-Aug-20 23:03N 50°19' W 000°02'112.3
2018-Aug-20 23:00N 50°19' W 000°03'612.1
2018-Aug-20 22:30N 50°18' W 000°13'511.9
2018-Aug-20 22:03N 50°17' W 000°21'511.9
2018-Aug-20 21:39N 50°16' W 000°28'211.7
2018-Aug-20 21:30N 50°16' W 000°31'511.8
2018-Aug-20 21:02N 50°14' W 000°39'012.1
2018-Aug-20 21:00N 50°14' W 000°40'611.9
2018-Aug-20 20:30N 50°12' W 000°49'3212.6
2018-Aug-20 18:01N 50°03' W 001°36'113.5
2018-Aug-20 17:56N 50°03' W 001°37'613.7
2018-Aug-20 17:30N 50°01' W 001°46'614.2
2018-Aug-20 17:03N 49°60' W 001°56'114.4
2018-Aug-20 17:00N 49°59' W 001°57'814.6
2018-Aug-20 16:29N 49°57' W 002°08'614.6
2018-Aug-20 16:03N 49°56' W 002°18'114.7
2018-Aug-20 16:00N 49°56' W 002°19'714.4
2018-Aug-20 15:30N 49°54' W 002°29'614.2
2018-Aug-20 15:03N 49°52' W 002°39'114.4
2018-Aug-20 14:59N 49°52' W 002°41'1614.1
2018-Aug-20 13:52N 49°49' W 003°04'513.9
2018-Aug-20 13:29N 49°47' W 003°13'713.9
2018-Aug-20 12:58N 49°46' W 003°23'713.8
2018-Aug-20 12:27N 49°46' W 003°35'513.8
2018-Aug-20 12:04N 49°45' W 003°43'213.6
2018-Aug-20 11:54N 49°45' W 003°46'4113.5
2018-Aug-20 08:51N 49°38' W 004°49'5412.9
2018-Aug-20 04:42N 49°38' W 006°12'18612.8
2018-Aug-19 14:14N 50°36' W 010°47'313.1
2018-Aug-19 14:00N 50°37' W 010°51'  
2018-Aug-14 01:29N 63°10' W 052°20'613.3
2018-Aug-14 01:01N 63°16' W 052°25'713.4
2018-Aug-14 00:30N 63°23' W 052°30'613.0
2018-Aug-14 00:00N 63°29' W 052°36'612.9
2018-Aug-13 23:30N 63°34' W 052°42'612.5
2018-Aug-13 23:01N 63°40' W 052°47'612.8
2018-Aug-13 22:30N 63°46' W 052°52'612.9
2018-Aug-13 22:00N 63°52' W 052°57'713.1
2018-Aug-13 21:30N 63°58' W 053°02'612.6
2018-Aug-13 21:00N 64°04' W 053°07'612.1
2018-Aug-13 20:30N 64°10' W 053°13'612.4
2018-Aug-13 20:00N 64°15' W 053°19'612.7
2018-Aug-13 19:30N 64°21' W 053°24'612.6
2018-Aug-13 19:00N 64°27' W 053°29'713.3
2018-Aug-13 18:30N 64°34' W 053°34'713.2
2018-Aug-13 18:01N 64°40' W 053°39'713.0
2018-Aug-13 17:31N 64°46' W 053°44'612.7
2018-Aug-13 17:00N 64°52' W 053°50'612.6
2018-Aug-13 16:30N 64°58' W 053°55'712.3
2018-Aug-13 15:59N 65°04' W 054°01'612.0
2018-Aug-13 15:29N 65°09' W 054°06'812.0
2018-Aug-13 14:48N 65°17' W 054°13'311.9
2018-Aug-13 14:31N 65°20' W 054°17'611.9
2018-Aug-13 14:00N 65°26' W 054°22'811.9
2018-Aug-13 13:20N 65°33' W 054°29'411.7
2018-Aug-13 13:01N 65°37' W 054°32'711.7
2018-Aug-13 12:24N 65°43' W 054°38'  
Track history (hours):
 
Tides and Currents Weather Stations Pressure Air Temp Water Temp Dewpoint Dewpoint Depression Visibility Wind Speed Wind Dir Waves Ship Positions

M.v.golden Bull

Last reported at 2018-Aug-21 04:03 UTC. Time now 2018-Aug-21 04:20 UTC.
Position N 50°44' E 001°24'.

Length 224 m; draft 14.1 m.

Type: Ship. MMSI: 477700600.

Date/timePositionNaut miles runAvg speedWind from/ knotsBaromVisibWave heightAir tempDewpointWater temp
2018-Aug-21 04:03N 50°44' E 001°24'113.1
2018-Aug-21 04:00N 50°43' E 001°23'612.6
2018-Aug-21 03:30N 50°38' E 001°17'612.7
2018-Aug-21 03:03N 50°35' E 001°10'112.8
2018-Aug-21 02:59N 50°34' E 001°09'612.6
2018-Aug-21 02:30N 50°30' E 001°01'512.3
2018-Aug-21 02:03N 50°28' E 000°53'112.1
2018-Aug-21 02:00N 50°28' E 000°52'612.2
2018-Aug-21 01:30N 50°27' E 000°43'2212.2
2018-Aug-20 23:40N 50°21' E 000°09'312.1
2018-Aug-20 23:27N 50°20' E 000°05'512.1
2018-Aug-20 23:03N 50°19' W 000°02'112.3
2018-Aug-20 23:00N 50°19' W 000°03'612.1
2018-Aug-20 22:30N 50°18' W 000°13'511.9
2018-Aug-20 22:03N 50°17' W 000°21'511.9
2018-Aug-20 21:39N 50°16' W 000°28'211.7
2018-Aug-20 21:30N 50°16' W 000°31'511.8
2018-Aug-20 21:02N 50°14' W 000°39'012.1
2018-Aug-20 21:00N 50°14' W 000°40'611.9
2018-Aug-20 20:30N 50°12' W 000°49'3212.6
2018-Aug-20 18:01N 50°03' W 001°36'113.5
2018-Aug-20 17:56N 50°03' W 001°37'613.7
2018-Aug-20 17:30N 50°01' W 001°46'614.2
2018-Aug-20 17:03N 49°60' W 001°56'114.4
2018-Aug-20 17:00N 49°59' W 001°57'814.6
2018-Aug-20 16:29N 49°57' W 002°08'614.6
2018-Aug-20 16:03N 49°56' W 002°18'114.7
2018-Aug-20 16:00N 49°56' W 002°19'714.4
2018-Aug-20 15:30N 49°54' W 002°29'614.2
2018-Aug-20 15:03N 49°52' W 002°39'114.4
2018-Aug-20 14:59N 49°52' W 002°41'1614.1
2018-Aug-20 13:52N 49°49' W 003°04'513.9
2018-Aug-20 13:29N 49°47' W 003°13'713.9
2018-Aug-20 12:58N 49°46' W 003°23'713.8
2018-Aug-20 12:27N 49°46' W 003°35'513.8
2018-Aug-20 12:04N 49°45' W 003°43'213.6
2018-Aug-20 11:54N 49°45' W 003°46'4113.5
2018-Aug-20 08:51N 49°38' W 004°49'5412.9
2018-Aug-20 04:42N 49°38' W 006°12'18612.8
2018-Aug-19 14:14N 50°36' W 010°47'313.1
2018-Aug-19 14:00N 50°37' W 010°51'  
2018-Aug-14 01:29N 63°10' W 052°20'613.3
2018-Aug-14 01:01N 63°16' W 052°25'713.4
2018-Aug-14 00:30N 63°23' W 052°30'613.0
2018-Aug-14 00:00N 63°29' W 052°36'612.9
2018-Aug-13 23:30N 63°34' W 052°42'612.5
2018-Aug-13 23:01N 63°40' W 052°47'612.8
2018-Aug-13 22:30N 63°46' W 052°52'612.9
2018-Aug-13 22:00N 63°52' W 052°57'713.1
2018-Aug-13 21:30N 63°58' W 053°02'612.6
2018-Aug-13 21:00N 64°04' W 053°07'612.1
2018-Aug-13 20:30N 64°10' W 053°13'612.4
2018-Aug-13 20:00N 64°15' W 053°19'612.7
2018-Aug-13 19:30N 64°21' W 053°24'612.6
2018-Aug-13 19:00N 64°27' W 053°29'713.3
2018-Aug-13 18:30N 64°34' W 053°34'713.2
2018-Aug-13 18:01N 64°40' W 053°39'713.0
2018-Aug-13 17:31N 64°46' W 053°44'612.7
2018-Aug-13 17:00N 64°52' W 053°50'612.6
2018-Aug-13 16:30N 64°58' W 053°55'712.3
2018-Aug-13 15:59N 65°04' W 054°01'612.0
2018-Aug-13 15:29N 65°09' W 054°06'812.0
2018-Aug-13 14:48N 65°17' W 054°13'311.9
2018-Aug-13 14:31N 65°20' W 054°17'611.9
2018-Aug-13 14:00N 65°26' W 054°22'811.9
2018-Aug-13 13:20N 65°33' W 054°29'411.7
2018-Aug-13 13:01N 65°37' W 054°32'711.7
2018-Aug-13 12:24N 65°43' W 054°38'  

Dump ship's entire track history